• Join FlightAware (Why Join?)
  • Login
  • US Flag 
05:48PM EST


 

Airport Tracker/Info


-or-


 

Live Flight TrackerFlight Track Log ✈ N1732M ✈ 30-Jul-2014 ✈ 1A5 - KMLB

Flight Track Log - Related Links

Times and Time Zones

All times are in EDT time to prevent confusion due to time zone crossing. See the N1732M flight status page for this flight to view local times or setup timezone preferences in your user account.

Time Position Orientation Groundspeed Altitude Reporting Facility
EDT Latitude Longitude Course Direction KTS MPH feet Rate Location/Type
12:46PM 34.9611 -83.3722 169° South 139 160 7,000  Level Atlanta Center
12:47PM 34.9297 -83.3650 169° South 127 146 7,400 350 Climbing Atlanta Center
12:48PM 34.8983 -83.3500 159° South 121 139 7,700 300 Climbing Atlanta Center
12:49PM 34.8628 -83.3375 164° South 126 145 8,000 300 Climbing Atlanta Center
12:50PM 34.8275 -83.3303 170° South 126 145 8,300 300 Climbing Atlanta Center
12:51PM 34.7878 -83.3181 166° South 131 151 8,600 300 Climbing Atlanta Center
12:52PM 34.7500 -83.3081 168° South 142 163 8,900 350 Climbing Atlanta Center
12:53PM 34.7125 -83.2983 168° South 142 163 9,300 350 Climbing Atlanta Center
12:54PM 34.6789 -83.2861 163° South 142 163 9,600 250 Climbing Atlanta Center
12:55PM 34.6414 -83.2764 168° South 142 163 9,800 200 Climbing Atlanta Center
12:56PM 34.6058 -83.2664 167° South 142 163 10,000 250 Climbing Atlanta Center
12:57PM 34.5744 -83.2517 159° South 142 163 10,300 250 Climbing Atlanta Center
12:58PM 34.5325 -83.2444 172° South 142 163 10,500 200 Climbing Atlanta Center
12:59PM 34.4969 -83.2322 164° South 142 163 10,700 200 Climbing Atlanta Center
01:00PM 34.4594 -83.2225 168° South 147 169 10,900 150 Climbing Atlanta Center
01:01PM 34.4217 -83.2128 168° South 140 161 11,000 100 Climbing Atlanta Center
01:02PM 34.3819 -83.2056 171° South 140 161 11,100  Climbing Atlanta Center
01:03PM 34.3403 -83.1961 169° South 148 170 11,000  Descending Atlanta Center
01:04PM 34.3028 -83.1889 171° South 148 170 11,100 50 Climbing Atlanta Center
01:05PM 34.2567 -83.1767 168° South 154 177 11,100  Level Atlanta Center
01:06PM 34.2192 -83.1747 178° South 154 177 11,100 -50 Level Atlanta Center
01:07PM 34.1772 -83.1650 169° South 154 177 11,000  Descending Atlanta Center
01:08PM 34.1314 -83.1581 173° South 160 184 11,100  Climbing Atlanta Center
01:09PM 34.0917 -83.1558 177° South 160 184 11,000  Descending Atlanta Center
01:10PM 34.0519 -83.1486 171° South 160 184 11,100  Climbing Atlanta Center
01:11PM 34.0081 -83.1392 170° South 160 184 11,000 -50 Descending Atlanta Center
01:12PM 33.9683 -83.1369 177° South 160 184 11,000  Level Atlanta Center
01:13PM 33.9286 -83.1425 187° South 165 190 11,000 50 Level Atlanta Center
01:14PM 33.8869 -83.1481 186° South 160 184 11,100  Climbing Atlanta Center
01:15PM 33.8453 -83.1533 186° South 160 184 11,000 -50 Descending Atlanta Center
01:16PM 33.8056 -83.1564 184° South 155 178 11,000 50 Level Atlanta Center
01:17PM 33.7639 -83.1442 166° South 155 178 11,100 50 Climbing Atlanta Center
01:18PM 33.7242 -83.1347 169° South 160 184 11,100 -50 Level Atlanta Center
01:19PM 33.6844 -83.1225 166° South 160 184 11,000  Descending Atlanta Center
01:20PM 33.6447 -83.1131 169° South 155 178 11,100 50 Climbing Atlanta Center
01:21PM 33.6028 -83.1036 169° South 155 178 11,100  Level Atlanta Center
01:22PM 33.5589 -83.0939 170° South 155 178 11,100  Level Atlanta Center
01:23PM 33.5192 -83.0819 166° South 155 178 11,100  Level Atlanta Center
01:24PM 33.4772 -83.0700 167° South 155 178 11,100  Level Atlanta Center
01:25PM 33.4375 -83.0581 166° South 155 178 11,100  Level Atlanta Center
01:26PM 33.3978 -83.0486 169° South 150 173 11,100  Level Atlanta Center
01:27PM 33.3519 -83.0392 170° South 155 178 11,100  Level Atlanta Center
01:28PM 33.3100 -83.0272 167° South 161 185 11,100  Level Atlanta Center
01:29PM 33.2639 -83.0178 170° South 167 192 11,100  Level Atlanta Center
01:30PM 33.2264 -83.0058 165° South 162 186 11,100  Level Atlanta Center
01:31PM 33.1867 -82.9939 166° South 151 174 11,100  Level Atlanta Center
01:32PM 33.1447 -82.9844 169° South 151 174 11,100 -50 Level Atlanta Center
01:33PM 33.1028 -82.9700 164° South 160 184 11,000  Descending Atlanta Center
01:34PM 33.0569 -82.9631 173° South 165 190 11,100 50 Climbing Atlanta Center
01:35PM 33.0172 -82.9489 163° South 165 190 11,100  Level Atlanta Center
01:36PM 32.9753 -82.9369 167° South 165 190 11,100  Level Atlanta Center
01:37PM 32.9333 -82.9275 169° South 160 184 11,100  Level Atlanta Center
01:38PM 32.8917 -82.9181 169° South 160 184 11,100  Level Atlanta Center
01:39PM 32.8517 -82.9039 163° South 160 184 11,100  Level Atlanta Center
01:40PM 32.8100 -82.8944 169° South 160 184 11,100  Level Atlanta Center
01:41PM 32.7681 -82.8853 170° South 160 184 11,100  Level Atlanta Center
01:42PM 32.7283 -82.8733 166° South 160 184 11,100  Level Atlanta Center
01:43PM 32.6864 -82.8617 167° South 160 184 11,100  Level Atlanta Center
01:44PM 32.6467 -82.8522 169° South 160 184 11,100  Level Atlanta Center
01:45PM 32.6069 -82.8406 166° South 160 184 11,100  Level Atlanta Center
01:46PM 32.5650 -82.8261 164° South 155 178 11,100 -50 Level Atlanta Center
01:47PM 32.5272 -82.8069 157° South 155 178 11,000  Descending Atlanta Center
01:49PM 32.4608 -82.7744 158° South 150 173 11,100 38 Climbing Jacksonville Center
01:50PM 32.4233 -82.7497 151° Southeast 160 184 11,100 -150 Level Jacksonville Center
01:51PM 32.3878 -82.7303 155° Southeast 154 177 10,800 -350 Descending Jacksonville Center
01:52PM 32.3439 -82.7033 153° Southeast 160 184 10,400 -300 Descending Jacksonville Center
01:53PM 32.3019 -82.6786 154° Southeast 160 184 10,200 -200 Descending Jacksonville Center
01:54PM 32.2581 -82.6542 155° Southeast 166 191 10,000 -250 Descending Jacksonville Center
01:55PM 32.2164 -82.6297 154° Southeast 166 191 9,700 -250 Descending Jacksonville Center
01:56PM 32.1744 -82.6053 154° Southeast 171 197 9,500 -150 Descending Jacksonville Center
01:57PM 32.1369 -82.5833 154° Southeast 171 197 9,400 -200 Descending Jacksonville Center
01:58PM 32.0950 -82.5592 154° Southeast 171 197 9,100 -150 Descending Jacksonville Center
01:59PM 32.0533 -82.5347 154° Southeast 166 191 9,100  Level Jacksonville Center
02:00PM 32.0178 -82.5153 155° Southeast 156 180 9,100  Level Jacksonville Center
02:01PM 31.9800 -82.4908 151° Southeast 156 180 9,100  Level Jacksonville Center
02:02PM 31.9425 -82.4714 156° South 156 180 9,100 -50 Level Jacksonville Center
02:03PM 31.9089 -82.4472 149° Southeast 151 174 9,000  Descending Jacksonville Center
02:04PM 31.8650 -82.4206 153° Southeast 151 174 9,100 50 Climbing Jacksonville Center
02:05PM 31.8272 -82.3961 151° Southeast 151 174 9,100  Level Jacksonville Center
02:06PM 31.7897 -82.3744 154° Southeast 156 180 9,100 -50 Level Jacksonville Center
02:07PM 31.7542 -82.3503 150° Southeast 156 180 9,000 -50 Descending Jacksonville Center
02:08PM 31.7142 -82.3283 155° Southeast 156 180 9,000  Level Jacksonville Center
02:09PM 31.6767 -82.3067 154° Southeast 156 180 9,000 50 Level Jacksonville Center
02:10PM 31.6431 -82.2850 151° Southeast 156 180 9,100 50 Climbing Jacksonville Center
02:11PM 31.6033 -82.2656 157° South 158 182 9,100 -50 Level Jacksonville Center
02:12PM 31.5678 -82.2439 153° Southeast 158 182 9,000 -50 Descending Jacksonville Center
02:13PM 31.5300 -82.2222 154° Southeast 158 182 9,000 -200 Level Jacksonville Center
02:14PM 31.4881 -82.1958 152° Southeast 158 182 8,600 -300 Descending Jacksonville Center
02:15PM 31.4483 -82.1717 153° Southeast 158 182 8,400 -300 Descending Jacksonville Center
02:16PM 31.4064 -82.1500 156° South 158 182 8,000 -200 Descending Jacksonville Center
02:17PM 31.3686 -82.1261 152° Southeast 158 182 8,000  Level Jacksonville Center
02:18PM 31.3311 -82.1044 154° Southeast 153 176 8,000  Level Jacksonville Center
02:19PM 31.2975 -82.0853 154° Southeast 153 176 8,000 -50 Level Jacksonville Center
02:20PM 31.2619 -82.0639 153° Southeast 148 170 7,900 -61 Descending Jacksonville Center
02:20PM 31.2367 -82.0469 150° Southeast 141 162 7,900 100 Level Jacksonville Center
02:21PM 31.2261 -82.0422 159° South 148 170 8,000 140 Climbing Jacksonville Center
02:21PM 31.2136 -82.0328 147° Southeast 139 160 8,000  Level Jacksonville Center
02:22PM 31.1947 -82.0231 156° South 142 163 8,000  Level Jacksonville Center
02:22PM 31.1758 -82.0064 143° Southeast 139 160 8,000  Level Jacksonville Center
02:23PM 31.1611 -82.0017 165° South 137 158 8,000 -98 Level Jacksonville Center
02:23PM 31.1403 -81.9897 154° Southeast 141 162 7,900  Descending Jacksonville Center
02:24PM 31.1256 -81.9800 151° Southeast 137 158 8,000 109 Climbing Jacksonville Center
02:24PM 31.1067 -81.9681 152° Southeast 143 165 8,000  Level Jacksonville Center
02:25PM 31.0900 -81.9586 154° Southeast 137 158 8,000  Level Jacksonville Center
02:25PM 31.0711 -81.9467 152° Southeast 141 162 8,000  Level Jacksonville Center
02:26PM 31.0564 -81.9369 151° Southeast 137 158 8,000  Level Jacksonville Center
02:26PM 31.0375 -81.9228 147° Southeast 142 163 8,000  Level Jacksonville Center
02:27PM 31.0206 -81.9156 160° South 137 158 8,000  Level Jacksonville Center
02:27PM 31.0061 -81.9036 145° Southeast 141 162 8,000  Level Jacksonville Center
02:28PM 30.9872 -81.8917 152° Southeast 137 158 8,000 90 Level Jacksonville Center
02:28PM 30.9619 -81.8750 151° Southeast 145 167 8,100  Climbing Jacksonville Center
02:29PM 30.9514 -81.8703 159° South 137 158 8,000  Descending Jacksonville Center
02:29PM 30.9261 -81.8536 151° Southeast 147 169 8,100  Climbing Jacksonville Center
02:30PM 30.9158 -81.8489 158° South 137 158 8,000  Descending Jacksonville Center
02:30PM 30.8886 -81.8322 152° Southeast 149 171 8,100 39 Climbing Jacksonville Center
02:32PM 30.8172 -81.7872 153° Southeast 148 170 8,100 -34 Level Jacksonville Center
02:33PM 30.7794 -81.7633 151° Southeast 150 173 8,000 -49 Descending Jacksonville Center
02:34PM 30.7417 -81.7419 154° Southeast 150 173 8,000  Level Jacksonville Center
02:35PM 30.7039 -81.7208 154° Southeast 150 173 8,000  Level Jacksonville Center
02:36PM 30.6681 -81.6947 148° Southeast 149 171 8,000 148 Level Jacksonville Center
02:37PM 30.6322 -81.6711 150° Southeast 155 178 8,300 281 Climbing Jacksonville Center
02:39PM 30.5944 -81.6450 149° Southeast 142 163 8,600 281 Climbing Jacksonville Center
02:40PM 30.5608 -81.6236 151° Southeast 142 163 8,900 295 Climbing Jacksonville Center
02:41PM 30.5272 -81.6022 151° Southeast 137 158 9,200 295 Climbing Jacksonville Center
02:42PM 30.4894 -81.5786 152° Southeast 135 155 9,500 259 Climbing Jacksonville Center
02:42PM 30.4600 -81.5647 158° South 138 159 9,700 207 Climbing Jacksonville Center
02:44PM 30.4222 -81.5483 159° South 138 159 9,900 197 Climbing Jacksonville Center
02:45PM 30.3867 -81.5319 158° South 133 153 10,100 98 Climbing Jacksonville Center
02:46PM 30.3489 -81.5181 162° South 148 170 10,100  Level Jacksonville Center
02:47PM 30.3069 -81.5019 162° South 149 171 10,100  Level Jacksonville Center
02:48PM 30.2650 -81.4808 157° South 144 166 10,100  Level Jacksonville Center
02:49PM 30.2294 -81.4669 161° South 148 170 10,100 -50 Level Jacksonville Center
02:50PM 30.1894 -81.4508 161° South 147 169 10,000  Descending Jacksonville Center
02:51PM 30.1539 -81.4369 161° South 143 165 10,100  Climbing Jacksonville Center
02:52PM 30.1097 -81.4183 160° South 147 169 10,000  Descending Jacksonville Center
02:53PM 30.0719 -81.4019 159° South 142 163 10,100 52 Climbing Jacksonville Center
02:54PM 30.0383 -81.3906 164° South 146 168 10,100  Level Jacksonville Center
02:55PM 29.9986 -81.3744 161° South 143 165 10,100  Level Jacksonville Center
02:56PM 29.9503 -81.3583 164° South 142 163 10,100  Level Jacksonville Center
02:57PM 29.9147 -81.3444 161° South 146 168 10,100  Level Jacksonville Center
02:58PM 29.8728 -81.3308 164° South 149 171 10,100  Level Jacksonville Center
02:59PM 29.8331 -81.3147 161° South 147 169 10,100  Level Jacksonville Center
03:00PM 29.7931 -81.2986 161° South 146 168 10,100  Level Jacksonville Center
03:01PM 29.7533 -81.2872 166° South 147 169 10,100  Level Jacksonville Center
03:02PM 29.7156 -81.2736 163° South 147 169 10,100  Level Jacksonville Center
03:03PM 29.6756 -81.2600 164° South 146 168 10,100  Level Jacksonville Center
03:04PM 29.6339 -81.2464 164° South 149 171 10,100  Level Jacksonville Center
03:05PM 29.5919 -81.2350 167° South 149 171 10,100  Level Jacksonville Center
03:06PM 29.5542 -81.2189 160° South 148 170 10,100  Level Jacksonville Center
03:07PM 29.5164 -81.2053 163° South 148 170 10,100  Level Jacksonville Center
03:08PM 29.4722 -81.1894 163° South 148 170 10,100  Level Jacksonville Center
03:09PM 29.4344 -81.1708 157° South 145 167 10,100  Level Jacksonville Center
03:10PM 29.3967 -81.1550 160° South 151 174 10,100 -207 Level Jacksonville Center
03:11PM 29.3569 -81.1414 163° South 163 188 9,700 -403 Descending Jacksonville Center
03:12PM 29.3042 -81.0994 145° Southeast 181 208 9,200 -518 Descending Jacksonville Center
03:13PM 29.2764 -81.0522 124° Southeast 184 212 8,500 -574 Descending Jacksonville Center
03:14PM 29.2528 -81.0122 124° Southeast 169 194 8,100 -519 Descending Jacksonville Center
03:15PM 29.2292 -80.9769 127° Southeast 174 200 7,600 -621 Descending Jacksonville Center
03:16PM 29.1972 -80.9278 127° Southeast 170 196 6,900 -476 Descending Jacksonville Center
03:18PM 29.1167 -80.8833 154° Southeast 146 168 6,100 -264 Descending Orlando TRACON
03:19PM 29.0833 -80.8667 156° South 148 170 6,100 -50 Level Orlando TRACON
03:20PM 29.0333 -80.8667 180° South 145 167 6,000 -50 Descending Orlando TRACON
03:21PM 29.0000 -80.8667 180° South 136 157 6,000  Level Orlando TRACON
03:22PM 28.9667 -80.8667 180° South 140 161 6,000  Level Orlando TRACON
03:23PM 28.9167 -80.8667 180° South 134 154 6,000  Level Orlando TRACON
03:24PM 28.8833 -80.8667 180° South 143 165 6,000  Level Orlando TRACON
03:25PM 28.8500 -80.8667 180° South 140 161 6,000 -45 Level Orlando TRACON
03:26PM 28.8000 -80.8667 180° South 149 171 5,900 -381 Descending Orlando TRACON
03:27PM 28.7500 -80.8667 180° South 154 177 5,200 -600 Descending Orlando TRACON
03:28PM 28.7167 -80.8667 180° South 163 188 4,700 -496 Descending Orlando TRACON
03:29PM 28.6667 -80.8500 164° South 160 184 4,200 -331 Descending Orlando TRACON
03:30PM 28.6333 -80.8333 156° South 144 166 4,000 -100 Descending Orlando TRACON
03:31PM 28.6000 -80.8167 156° South 141 162 4,000 56 Level Orlando TRACON
03:32PM 28.5667 -80.8167 180° South 135 155 4,100  Climbing Orlando TRACON
03:33PM 28.5333 -80.8000 156° South 134 154 4,000 -48 Descending Orlando TRACON
03:34PM 28.4833 -80.8000 180° South 131 151 4,000  Level Orlando TRACON
03:35PM 28.4500 -80.8000 180° South 150 173 4,000  Level Orlando TRACON
03:36PM 28.4000 -80.7833 164° South 148 170 4,000 50 Level Orlando TRACON
03:37PM 28.3667 -80.7833 180° South 153 176 4,100 -150 Climbing Orlando TRACON
03:38PM 28.3167 -80.7833 180° South 148 170 3,700 -478 Descending Orlando TRACON
03:40PM 28.2667 -80.7667 164° South 140 161 3,000 -333 Descending Orlando TRACON
03:40PM 28.2500 -80.7667 180° South 134 154 3,000  Level Orlando TRACON
03:41PM 28.2167 -80.7667 180° South 134 154 3,000  Level Orlando TRACON
03:42PM 28.1667 -80.7667 180° South 134 154 3,000  Level Orlando TRACON
03:43PM 28.1333 -80.7500 156° South 118 136 3,000 -429 Level Orlando TRACON
03:44PM 28.1167 -80.7333 139° Southeast 130 150 2,100 -1,100 Descending Orlando TRACON
03:45PM 28.1000 -80.6833 111° Southeast 121 139 800 -1,182 Descending Orlando TRACON
03:47PM 28.1028 -80.6453 156° South  Level Estimated
03:54PM 28.1028 -80.6453 156° South  Level Estimated
03:55PM 28.1028 -80.6453 105° East  Level Estimated
03:56PM 28.1028 -80.6453 156° South  Level Estimated
03:57PM 28.1028 -80.6453 105° East  Level Estimated